Time;durP1;ratioP1;P1;durP2;ratioP2;P2;SDS_P1;SDS_P2;PMS_P1;PMS_P2;Temp;Humidity;BMP_temperature;BMP_pressure;BME280_temperature;BME280_humidity;BME280_pressure;Samples;Min_cycle;Max_cycle;Signal;HPM_P1;HPM_P2
2022/12/23 00:01:11;;;;;;;2.88;1.35;;;9.90;99.90;;;;;;5055533;28;20199;-82
2022/12/23 00:03:39;;;;;;;5.20;2.35;;;9.90;99.90;;;;;;5054078;28;20676;-82
2022/12/23 00:06:09;;;;;;;0.85;0.70;;;9.90;99.90;;;;;;5052675;28;20186;-82
2022/12/23 00:08:37;;;;;;;1.40;1.30;;;9.90;99.90;;;;;;5056213;28;20221;-82
2022/12/23 00:11:06;;;;;;;9.52;2.95;;;9.90;99.90;;;;;;5056527;28;20195;-82
2022/12/23 00:16:17;;;;;;;1.13;1.02;;;9.90;99.90;;;;;;5044314;28;20202;-82
2022/12/23 00:18:44;;;;;;;3.65;1.85;;;9.90;99.90;;;;;;5050347;28;20285;-82
2022/12/23 00:21:13;;;;;;;1.73;1.63;;;9.90;99.90;;;;;;5054018;28;20395;-83
2022/12/23 00:23:45;;;;;;;1.95;1.70;;;9.90;99.90;;;;;;5051505;28;20218;-81
2022/12/23 00:26:17;;;;;;;3.85;2.83;;;9.90;99.90;;;;;;5047191;28;20191;-82
2022/12/23 00:28:44;;;;;;;6.47;2.45;;;9.90;99.90;;;;;;5054827;28;20225;-83
2022/12/23 00:31:12;;;;;;;6.45;3.67;;;9.90;99.90;;;;;;5050550;28;20278;-81
2022/12/23 00:33:41;;;;;;;2.65;1.98;;;9.90;99.90;;;;;;5054153;28;20210;-83
2022/12/23 00:36:12;;;;;;;3.17;2.30;;;9.90;99.90;;;;;;5048602;28;20650;-81
2022/12/23 00:44:10;;;;;;;1.83;1.67;;;9.90;99.90;;;;;;5063943;28;20200;-80
2022/12/23 00:46:37;;;;;;;1.67;1.48;;;9.90;99.90;;;;;;5064491;28;20281;-82
2022/12/23 00:51:48;;;;;;;18.30;3.42;;;9.90;99.90;;;;;;5057677;28;20687;-82
2022/12/23 00:54:17;;;;;;;4.22;1.55;;;9.90;99.90;;;;;;5044762;28;20198;-82
2022/12/23 00:56:44;;;;;;;1.45;1.33;;;9.90;99.90;;;;;;5046237;28;20728;-82
2022/12/23 00:59:10;;;;;;;4.13;1.42;;;9.80;99.90;;;;;;5038857;28;20201;-82
2022/12/23 01:07:06;;;;;;;7.22;3.65;;;9.80;99.90;;;;;;5057022;28;20424;-84
2022/12/23 01:09:35;;;;;;;1.48;1.05;;;9.80;99.90;;;;;;5058608;28;20326;-83
2022/12/23 01:12:02;;;;;;;7.22;2.30;;;9.70;99.90;;;;;;5058025;28;20301;-83
2022/12/23 01:14:29;;;;;;;0.95;0.95;;;9.70;99.90;;;;;;5065678;28;20194;-82
2022/12/23 01:16:56;;;;;;;5.30;3.00;;;9.70;99.90;;;;;;5075390;28;20194;-83
2022/12/23 01:19:23;;;;;;;1.70;1.58;;;9.80;99.90;;;;;;5059747;28;20254;-82
2022/12/23 01:21:50;;;;;;;5.55;1.42;;;9.70;99.90;;;;;;5057522;28;20258;-82
2022/12/23 01:24:17;;;;;;;4.53;3.08;;;9.70;99.90;;;;;;5054932;28;20277;-83
2022/12/23 01:26:45;;;;;;;3.72;3.38;;;9.70;99.90;;;;;;5038530;28;20192;-83
2022/12/23 01:29:12;;;;;;;3.73;2.63;;;9.80;99.90;;;;;;5051208;28;20218;-83
2022/12/23 01:31:39;;;;;;;2.60;2.45;;;9.80;99.90;;;;;;5055023;28;20452;-83
2022/12/23 01:34:06;;;;;;;0.77;0.77;;;9.80;99.90;;;;;;5056823;28;20286;-83
2022/12/23 01:36:32;;;;;;;3.65;3.13;;;9.80;99.90;;;;;;5057229;28;20214;-84
2022/12/23 01:38:59;;;;;;;8.95;3.85;;;9.80;99.90;;;;;;5057106;28;20617;-83
2022/12/23 01:44:49;;;;;;;5.15;4.63;;;9.80;99.90;;;;;;5055625;28;20194;-83
2022/12/23 01:47:22;;;;;;;9.45;3.75;;;9.80;99.90;;;;;;4986454;28;20220;-85
2022/12/23 01:49:52;;;;;;;1.13;0.95;;;9.80;99.90;;;;;;5044178;28;20213;-83
2022/12/23 01:52:20;;;;;;;0.55;0.55;;;9.80;99.90;;;;;;5057185;28;20297;-83
2022/12/23 01:54:47;;;;;;;3.90;2.85;;;9.80;99.90;;;;;;5050839;28;20275;-84
2022/12/23 01:57:14;;;;;;;0.93;0.93;;;9.90;99.90;;;;;;5052540;28;20199;-83
2022/12/23 02:05:16;;;;;;;0.55;0.55;;;9.90;99.90;;;;;;5045739;28;20225;-83
2022/12/23 02:10:36;;;;;;;0.40;0.40;;;9.90;99.90;;;;;;5049014;28;20260;-83
2022/12/23 02:13:11;;;;;;;2.65;1.52;;;9.90;99.90;;;;;;5051623;28;20227;-82
2022/12/23 02:18:45;;;;;;;0.40;0.40;;;9.90;99.90;;;;;;5057031;28;20218;-83
2022/12/23 02:21:22;;;;;;;0.93;0.93;;;9.90;99.90;;;;;;5037410;28;20184;-83
2022/12/23 02:24:33;;;;;;;6.72;2.58;;;9.90;99.90;;;;;;5037972;28;20222;-83
2022/12/23 02:27:16;;;;;;;3.85;3.20;;;9.90;99.90;;;;;;5037831;28;20197;-81
2022/12/23 02:30:25;;;;;;;0.95;0.95;;;9.90;99.90;;;;;;5063179;28;20265;-83
2022/12/23 02:33:25;;;;;;;1.15;1.05;;;9.90;99.90;;;;;;5059591;28;20211;-82
2022/12/23 02:35:59;;;;;;;7.45;2.00;;;9.90;99.90;;;;;;5043857;28;20208;-82
2022/12/23 02:38:31;;;;;;;0.70;0.70;;;9.90;99.90;;;;;;5039281;28;20322;-83
2022/12/23 02:41:06;;;;;;;0.50;0.40;;;9.90;99.90;;;;;;5053375;28;20184;-82
2022/12/23 02:43:43;;;;;;;0.77;0.77;;;9.90;99.90;;;;;;5042460;28;20320;-82
2022/12/23 02:46:16;;;;;;;0.82;0.82;;;9.90;99.90;;;;;;5055586;28;20285;-83
2022/12/23 02:48:49;;;;;;;1.48;1.38;;;9.90;99.90;;;;;;5055565;28;20216;-81
2022/12/23 02:51:18;;;;;;;1.48;1.38;;;9.90;99.90;;;;;;5057564;28;20198;-83
2022/12/23 02:53:50;;;;;;;2.95;2.33;;;9.90;99.90;;;;;;5057588;28;20225;-82
2022/12/23 02:56:19;;;;;;;2.80;2.60;;;9.90;99.90;;;;;;5057707;28;20179;-81
2022/12/23 02:58:56;;;;;;;0.95;0.95;;;9.90;99.90;;;;;;5050975;28;20196;-82
2022/12/23 03:01:26;;;;;;;3.60;2.00;;;9.90;99.90;;;;;;5058471;28;20237;-83
2022/12/23 03:03:54;;;;;;;4.40;2.35;;;9.90;99.90;;;;;;5056088;28;20287;-81
2022/12/23 03:06:25;;;;;;;1.27;1.27;;;9.90;99.90;;;;;;5056074;28;20199;-81
2022/12/23 03:08:55;;;;;;;3.90;2.15;;;9.90;99.90;;;;;;5054642;28;20583;-81
2022/12/23 03:11:25;;;;;;;1.42;1.23;;;9.90;99.90;;;;;;5053558;28;20282;-81
2022/12/23 03:14:05;;;;;;;2.60;2.40;;;9.90;99.90;;;;;;5046054;28;20241;-81
2022/12/23 03:16:41;;;;;;;4.60;1.13;;;9.90;99.90;;;;;;5059758;28;20505;-83
2022/12/23 03:19:19;;;;;;;1.35;1.30;;;9.90;99.90;;;;;;5056230;28;20192;-82
2022/12/23 03:21:53;;;;;;;4.15;3.85;;;9.90;99.90;;;;;;5057180;28;20195;-83
2022/12/23 03:24:31;;;;;;;0.50;0.40;;;10.00;99.90;;;;;;5056577;28;20210;-83
2022/12/23 03:27:04;;;;;;;0.95;0.95;;;10.00;99.90;;;;;;5057030;28;20179;-83
2022/12/23 03:29:38;;;;;;;1.15;1.15;;;10.00;99.90;;;;;;5056420;28;20209;-82
2022/12/23 03:32:07;;;;;;;2.03;1.92;;;10.00;99.90;;;;;;5051802;28;20226;-83
2022/12/23 03:34:39;;;;;;;5.63;3.60;;;10.00;99.90;;;;;;5054765;28;20198;-83
2022/12/23 03:37:09;;;;;;;3.47;1.67;;;10.00;99.90;;;;;;5036751;28;20249;-83
2022/12/23 03:39:41;;;;;;;8.88;5.03;;;10.00;99.90;;;;;;5052505;28;20770;-83
2022/12/23 03:42:13;;;;;;;17.90;2.92;;;10.00;99.90;;;;;;5038004;28;20226;-82
2022/12/23 03:44:44;;;;;;;1.50;1.40;;;10.00;99.90;;;;;;5051336;28;20226;-83
2022/12/23 03:47:14;;;;;;;2.35;1.98;;;10.00;99.90;;;;;;5056746;28;20258;-82
2022/12/23 03:49:46;;;;;;;0.77;0.77;;;10.00;99.90;;;;;;5056611;28;20204;-84
2022/12/23 03:52:16;;;;;;;1.08;0.88;;;10.00;99.90;;;;;;5056038;28;20245;-81
2022/12/23 03:54:45;;;;;;;3.35;1.75;;;10.00;99.90;;;;;;5056382;28;20186;-82
2022/12/23 03:57:14;;;;;;;1.15;1.05;;;10.00;99.90;;;;;;5055073;28;20195;-82
2022/12/23 03:59:45;;;;;;;3.42;1.70;;;10.00;99.90;;;;;;5054793;28;20187;-83
2022/12/23 04:02:20;;;;;;;1.38;1.38;;;10.00;99.90;;;;;;5046444;28;20738;-84
2022/12/23 04:05:17;;;;;;;2.50;2.40;;;10.00;99.90;;;;;;5036732;28;20203;-84
2022/12/23 04:07:49;;;;;;;1.38;0.73;;;10.00;99.90;;;;;;5046386;28;20217;-81
2022/12/23 04:10:16;;;;;;;2.47;1.23;;;9.90;99.90;;;;;;5070865;28;20186;-80
2022/12/23 04:12:44;;;;;;;3.10;2.20;;;10.00;99.90;;;;;;5065847;28;20245;-80
2022/12/23 04:15:11;;;;;;;7.32;4.28;;;10.00;99.90;;;;;;5069916;28;20195;-80
2022/12/23 04:17:38;;;;;;;4.72;3.60;;;9.90;99.90;;;;;;5065864;28;20226;-80
2022/12/23 04:20:07;;;;;;;0.50;0.40;;;9.90;99.90;;;;;;5066146;28;20272;-80
2022/12/23 04:22:35;;;;;;;0.98;0.98;;;9.90;99.90;;;;;;5066492;28;20657;-80
2022/12/23 04:25:02;;;;;;;2.30;2.10;;;9.90;99.90;;;;;;5069914;28;20278;-84
2022/12/23 04:27:28;;;;;;;1.37;1.27;;;9.90;99.90;;;;;;5070083;28;20469;-82
2022/12/23 04:29:55;;;;;;;4.85;3.13;;;9.90;99.90;;;;;;5066414;28;20488;-83
2022/12/23 04:32:22;;;;;;;0.47;0.40;;;9.90;99.90;;;;;;5058044;28;20321;-83
2022/12/23 04:34:49;;;;;;;3.45;3.25;;;9.90;99.90;;;;;;5059189;28;20230;-84
2022/12/23 04:37:16;;;;;;;15.88;2.92;;;9.90;99.90;;;;;;5052555;28;20238;-83
2022/12/23 04:39:44;;;;;;;5.88;2.55;;;9.90;99.90;;;;;;5039805;28;20215;-83
2022/12/23 04:42:11;;;;;;;3.67;3.15;;;9.90;99.90;;;;;;5044818;28;20294;-83
2022/12/23 04:44:37;;;;;;;2.05;1.95;;;9.90;99.90;;;;;;5056038;28;20324;-82
2022/12/23 04:47:04;;;;;;;4.90;3.00;;;9.90;99.90;;;;;;5057726;28;20209;-83
2022/12/23 04:49:32;;;;;;;0.50;0.50;;;9.90;99.90;;;;;;5059771;28;20191;-83
2022/12/23 04:51:59;;;;;;;1.13;1.10;;;9.90;99.90;;;;;;5058163;28;20227;-84
2022/12/23 04:54:26;;;;;;;1.50;0.90;;;9.90;99.90;;;;;;5057534;28;20579;-83
2022/12/23 04:56:54;;;;;;;9.20;2.88;;;9.90;99.90;;;;;;5059280;28;20203;-82
2022/12/23 04:59:21;;;;;;;1.55;1.45;;;9.90;99.90;;;;;;5041161;28;20192;-83
2022/12/23 05:01:48;;;;;;;4.87;3.70;;;9.90;99.90;;;;;;5039080;28;20231;-82
2022/12/23 05:04:15;;;;;;;1.05;0.68;;;9.90;99.90;;;;;;5052718;28;21011;-83
2022/12/23 05:06:42;;;;;;;4.50;2.30;;;9.90;99.90;;;;;;5058998;28;20202;-81
2022/12/23 05:09:09;;;;;;;5.13;3.70;;;9.90;99.90;;;;;;5043485;28;20191;-83
2022/12/23 05:11:36;;;;;;;7.38;4.07;;;9.90;99.90;;;;;;5038938;28;20548;-82
2022/12/23 05:14:04;;;;;;;1.90;1.80;;;9.90;99.90;;;;;;5051133;28;20195;-83
2022/12/23 05:16:31;;;;;;;4.22;3.28;;;9.90;99.90;;;;;;5059058;28;20273;-82
2022/12/23 05:18:58;;;;;;;1.17;1.02;;;9.90;99.90;;;;;;5046604;28;20214;-83
2022/12/23 05:21:24;;;;;;;0.75;0.75;;;9.90;99.90;;;;;;5053572;28;20277;-83
2022/12/23 05:23:51;;;;;;;4.80;3.20;;;9.90;99.90;;;;;;5048509;28;20299;-83
2022/12/23 05:26:18;;;;;;;1.55;1.25;;;9.90;99.90;;;;;;5039456;28;20199;-83
2022/12/23 05:28:45;;;;;;;5.80;3.13;;;9.90;99.90;;;;;;5047278;28;20214;-80
2022/12/23 05:31:14;;;;;;;2.60;2.47;;;9.90;99.90;;;;;;5054226;28;20258;-82
2022/12/23 05:33:41;;;;;;;1.70;1.60;;;9.80;99.90;;;;;;5054178;28;20460;-79
2022/12/23 05:36:09;;;;;;;3.30;2.92;;;9.90;99.90;;;;;;5057662;28;20629;-82
2022/12/23 05:38:36;;;;;;;1.42;1.25;;;9.80;99.90;;;;;;5056855;28;20195;-82
2022/12/23 05:41:03;;;;;;;2.95;2.60;;;9.80;99.90;;;;;;5050197;28;20191;-82
2022/12/23 05:43:30;;;;;;;2.08;1.42;;;9.80;99.90;;;;;;5054955;28;20830;-82
2022/12/23 05:45:57;;;;;;;2.80;2.03;;;9.80;99.90;;;;;;5053882;28;20195;-82
2022/12/23 05:48:25;;;;;;;0.60;0.60;;;9.80;99.90;;;;;;5056490;28;20225;-81
2022/12/23 05:50:53;;;;;;;3.60;3.47;;;9.80;99.90;;;;;;5056660;28;20202;-81
2022/12/23 05:53:20;;;;;;;4.80;2.65;;;9.80;99.90;;;;;;5036235;28;20298;-81
2022/12/23 05:55:47;;;;;;;1.42;1.27;;;9.80;99.90;;;;;;5053420;28;20194;-82
2022/12/23 05:58:14;;;;;;;1.63;1.52;;;9.80;99.90;;;;;;5055988;28;20278;-82
2022/12/23 06:00:41;;;;;;;2.90;1.85;;;9.80;99.90;;;;;;5056040;28;20194;-81
2022/12/23 06:03:08;;;;;;;2.38;0.70;;;9.80;99.90;;;;;;5055986;28;20214;-81
2022/12/23 06:05:37;;;;;;;6.82;4.65;;;9.80;99.90;;;;;;5055799;28;20199;-82
2022/12/23 06:08:04;;;;;;;6.07;4.07;;;9.80;99.90;;;;;;5055212;28;20222;-82
2022/12/23 06:10:31;;;;;;;2.80;2.17;;;9.80;99.90;;;;;;5056489;28;20191;-82
2022/12/23 06:12:58;;;;;;;2.67;2.58;;;9.80;99.90;;;;;;5054248;28;20302;-81
2022/12/23 06:15:25;;;;;;;4.63;4.32;;;9.80;99.90;;;;;;5053403;28;20219;-82
2022/12/23 06:17:52;;;;;;;1.52;1.42;;;9.80;99.90;;;;;;5054679;28;20191;-81
2022/12/23 06:20:19;;;;;;;2.92;2.20;;;9.80;99.90;;;;;;5036232;28;20211;-81
2022/12/23 06:22:47;;;;;;;6.63;3.67;;;9.80;99.90;;;;;;5035854;28;20226;-81
2022/12/23 06:25:14;;;;;;;3.35;2.78;;;9.80;99.90;;;;;;5031340;28;20215;-82
2022/12/23 06:27:41;;;;;;;1.83;1.73;;;9.80;99.90;;;;;;5039062;28;20283;-80
2022/12/23 06:30:09;;;;;;;4.70;1.63;;;9.80;99.90;;;;;;5043789;28;20623;-81
2022/12/23 06:32:36;;;;;;;2.90;1.88;;;9.80;99.90;;;;;;5052251;28;20642;-81
2022/12/23 06:35:03;;;;;;;2.95;2.75;;;9.80;99.90;;;;;;5055684;28;20191;-80
2022/12/23 06:37:30;;;;;;;3.35;2.83;;;9.80;99.90;;;;;;5042364;28;20278;-83
2022/12/23 06:39:58;;;;;;;1.20;1.20;;;9.80;99.90;;;;;;5036277;28;20215;-83
2022/12/23 06:42:25;;;;;;;2.43;1.17;;;9.80;99.90;;;;;;5043048;28;20216;-82
2022/12/23 06:44:51;;;;;;;6.23;3.07;;;9.80;99.90;;;;;;5063163;28;20504;-82
2022/12/23 06:47:18;;;;;;;1.20;1.05;;;9.80;99.90;;;;;;5049969;28;20506;-81
2022/12/23 06:49:45;;;;;;;0.45;0.43;;;9.70;99.90;;;;;;5050762;28;20221;-82
2022/12/23 06:52:12;;;;;;;1.58;1.48;;;9.80;99.90;;;;;;5035465;28;20719;-82
2022/12/23 06:54:39;;;;;;;4.10;2.90;;;9.80;99.90;;;;;;5052641;28;20716;-81
2022/12/23 06:57:07;;;;;;;1.88;1.58;;;9.80;99.90;;;;;;5054755;28;20214;-83
2022/12/23 06:59:34;;;;;;;3.00;2.15;;;9.80;99.90;;;;;;5042357;28;20226;-80
2022/12/23 07:02:01;;;;;;;5.65;3.70;;;9.80;99.90;;;;;;5049878;28;20649;-80
2022/12/23 07:04:27;;;;;;;2.55;2.13;;;9.80;99.90;;;;;;5040073;28;20294;-79
2022/12/23 07:06:54;;;;;;;4.05;1.75;;;9.80;99.90;;;;;;5034944;28;20229;-81
2022/12/23 07:09:21;;;;;;;5.38;4.65;;;9.80;99.90;;;;;;5055511;28;20712;-81
2022/12/23 07:11:48;;;;;;;1.80;1.70;;;9.80;99.90;;;;;;5051610;28;20201;-82
2022/12/23 07:14:16;;;;;;;2.90;1.80;;;9.80;99.90;;;;;;5051581;28;20930;-83
2022/12/23 07:16:44;;;;;;;6.53;5.90;;;9.80;99.90;;;;;;5054269;28;20297;-80
2022/12/23 07:19:10;;;;;;;11.55;6.03;;;9.80;99.90;;;;;;5052658;28;20195;-82
2022/12/23 07:21:38;;;;;;;2.45;1.98;;;9.80;99.90;;;;;;5050560;28;20541;-82
2022/12/23 07:24:06;;;;;;;3.15;2.90;;;9.80;99.90;;;;;;5053079;28;20211;-81
2022/12/23 07:26:34;;;;;;;8.30;4.88;;;9.80;99.90;;;;;;5054215;28;20205;-82
2022/12/23 07:29:03;;;;;;;9.05;5.72;;;9.70;99.90;;;;;;5047500;28;20206;-83
2022/12/23 07:31:31;;;;;;;5.63;4.90;;;9.70;99.90;;;;;;5054840;28;20190;-81
2022/12/23 07:33:58;;;;;;;4.45;2.25;;;9.70;99.90;;;;;;5051307;28;20557;-81
2022/12/23 07:36:25;;;;;;;6.40;3.80;;;9.70;99.90;;;;;;5039509;28;20278;-79
2022/12/23 07:38:52;;;;;;;6.38;5.78;;;9.70;99.90;;;;;;5055737;28;20206;-80
2022/12/23 07:41:19;;;;;;;0.90;0.55;;;9.70;99.90;;;;;;5056451;28;20258;-80
2022/12/23 07:43:47;;;;;;;2.92;2.40;;;9.70;99.90;;;;;;5055040;28;20726;-82
2022/12/23 07:46:14;;;;;;;4.88;3.15;;;9.70;99.90;;;;;;5052823;28;20846;-81
2022/12/23 07:48:42;;;;;;;17.63;5.80;;;9.70;99.90;;;;;;5056922;28;20190;-80
2022/12/23 07:51:09;;;;;;;13.52;3.42;;;9.70;99.90;;;;;;5059220;28;20198;-80
2022/12/23 07:53:36;;;;;;;0.55;0.55;;;9.70;99.90;;;;;;5054571;28;20214;-81
2022/12/23 07:56:03;;;;;;;1.13;1.05;;;9.70;99.90;;;;;;5051512;28;20183;-81
2022/12/23 07:58:30;;;;;;;11.57;3.80;;;9.70;99.90;;;;;;5056496;28;20246;-81
2022/12/23 08:01:02;;;;;;;3.55;2.28;;;9.70;99.90;;;;;;5050994;28;20282;-80
2022/12/23 08:03:29;;;;;;;14.57;6.32;;;9.70;99.90;;;;;;5058186;28;20214;-80
2022/12/23 08:06:05;;;;;;;3.67;3.38;;;9.70;99.90;;;;;;5052087;28;20203;-81
2022/12/23 08:08:32;;;;;;;4.28;3.78;;;9.70;99.90;;;;;;5042501;28;20187;-79
2022/12/23 08:11:00;;;;;;;4.32;3.00;;;9.70;99.90;;;;;;5052069;28;20205;-81
2022/12/23 08:13:27;;;;;;;0.75;0.73;;;9.70;99.90;;;;;;5055504;28;20299;-78
2022/12/23 08:15:55;;;;;;;8.20;7.35;;;9.70;99.90;;;;;;5057168;28;20724;-80
2022/12/23 08:18:22;;;;;;;4.82;4.53;;;9.70;99.90;;;;;;5046693;28;20194;-82
2022/12/23 08:20:54;;;;;;;0.80;0.80;;;9.70;99.90;;;;;;5057289;28;20191;-81
2022/12/23 08:23:22;;;;;;;37.37;4.13;;;9.70;99.90;;;;;;5053929;28;20211;-81
2022/12/23 08:25:49;;;;;;;2.90;2.58;;;9.70;99.90;;;;;;5051776;28;20466;-80
2022/12/23 08:28:16;;;;;;;2.90;2.55;;;9.70;99.90;;;;;;5044476;28;20277;-80
2022/12/23 08:30:43;;;;;;;4.35;4.05;;;9.70;99.90;;;;;;5057282;28;20853;-80
2022/12/23 08:33:10;;;;;;;0.98;0.93;;;9.60;99.90;;;;;;5056345;28;20207;-80
2022/12/23 08:35:37;;;;;;;0.88;0.88;;;9.60;99.90;;;;;;5065165;28;20273;-80
2022/12/23 08:38:04;;;;;;;4.47;1.95;;;9.70;99.90;;;;;;5066144;28;20227;-80
2022/12/23 08:40:32;;;;;;;5.75;3.30;;;9.70;99.90;;;;;;5054420;28;20194;-81
2022/12/23 08:42:59;;;;;;;2.03;0.52;;;9.70;99.90;;;;;;5047132;28;20726;-82
2022/12/23 08:45:26;;;;;;;5.70;3.05;;;9.70;99.90;;;;;;5051318;28;20206;-81
2022/12/23 08:47:53;;;;;;;3.30;3.10;;;9.70;99.90;;;;;;5054189;28;20241;-81
2022/12/23 08:50:19;;;;;;;6.63;3.33;;;9.70;99.90;;;;;;5058388;28;20593;-81
2022/12/23 08:52:46;;;;;;;5.38;2.45;;;9.70;99.90;;;;;;5068013;28;20246;-82
2022/12/23 08:55:13;;;;;;;1.02;0.90;;;9.70;99.90;;;;;;5053903;28;20191;-81
2022/12/23 08:57:41;;;;;;;1.42;1.42;;;9.70;99.90;;;;;;5058542;28;20229;-80
2022/12/23 09:00:09;;;;;;;7.65;4.82;;;9.70;99.90;;;;;;5057169;28;20198;-82
2022/12/23 09:02:36;;;;;;;5.18;3.38;;;9.70;99.90;;;;;;5073101;28;20286;-81
2022/12/23 09:05:03;;;;;;;4.03;3.70;;;9.70;99.90;;;;;;5058935;28;20207;-81
2022/12/23 09:07:30;;;;;;;1.75;1.65;;;9.70;99.90;;;;;;5056801;28;20205;-81
2022/12/23 09:09:57;;;;;;;1.55;1.45;;;9.70;99.90;;;;;;5058232;28;20209;-81
2022/12/23 09:12:24;;;;;;;3.17;2.90;;;9.70;99.90;;;;;;5056881;28;20524;-82
2022/12/23 09:14:52;;;;;;;2.55;2.35;;;9.70;99.90;;;;;;5057473;28;20278;-81
2022/12/23 09:17:19;;;;;;;2.15;2.05;;;9.80;99.90;;;;;;5058051;28;20449;-81
2022/12/23 09:19:46;;;;;;;6.75;2.85;;;9.80;99.90;;;;;;5058499;28;20294;-81
2022/12/23 09:22:13;;;;;;;0.90;0.90;;;9.70;99.90;;;;;;5057584;28;20301;-81
2022/12/23 09:24:39;;;;;;;0.47;0.40;;;9.80;99.90;;;;;;5057126;28;20303;-81
2022/12/23 09:27:06;;;;;;;1.48;1.48;;;9.80;99.90;;;;;;5057921;28;20198;-80
2022/12/23 09:29:33;;;;;;;11.52;1.85;;;9.80;99.90;;;;;;5058166;28;20267;-81
2022/12/23 09:32:01;;;;;;;1.20;1.20;;;9.80;99.90;;;;;;5057105;28;20854;-81
2022/12/23 09:34:28;;;;;;;2.10;1.85;;;9.80;99.90;;;;;;5048132;28;20885;-82
2022/12/23 09:36:55;;;;;;;4.13;3.72;;;9.80;99.90;;;;;;5054860;28;20264;-81
2022/12/23 09:39:22;;;;;;;0.60;0.60;;;9.80;99.90;;;;;;5057562;28;20278;-80
2022/12/23 09:42:00;;;;;;;1.35;0.95;;;9.80;99.90;;;;;;5038402;28;20187;-82
2022/12/23 09:44:40;;;;;;;0.43;0.40;;;9.70;99.90;;;;;;5050450;28;20859;-80
2022/12/23 09:47:14;;;;;;;2.25;1.52;;;9.80;99.90;;;;;;5050469;28;20198;-80
2022/12/23 09:49:47;;;;;;;1.70;1.60;;;9.80;99.90;;;;;;5055489;28;20712;-81
2022/12/23 09:52:20;;;;;;;0.73;0.70;;;9.80;99.90;;;;;;5046077;28;20250;-81
2022/12/23 09:54:52;;;;;;;0.40;0.40;;;9.80;99.90;;;;;;5053820;28;20671;-82
2022/12/23 09:57:23;;;;;;;2.25;1.70;;;9.80;99.90;;;;;;5050768;28;20441;-82
2022/12/23 10:00:07;;;;;;;4.10;1.92;;;9.80;99.90;;;;;;5054934;28;20732;-81
2022/12/23 10:02:44;;;;;;;1.90;1.80;;;9.80;99.90;;;;;;5051045;28;20221;-82
2022/12/23 10:05:21;;;;;;;1.60;1.25;;;9.80;99.90;;;;;;5055104;28;20225;-83
2022/12/23 10:07:52;;;;;;;0.70;0.50;;;9.80;99.90;;;;;;5053403;28;20286;-83
2022/12/23 10:10:29;;;;;;;6.68;2.88;;;9.80;99.90;;;;;;5045540;28;20187;-82
2022/12/23 10:12:58;;;;;;;8.98;3.90;;;9.80;99.90;;;;;;5050290;28;20302;-82
2022/12/23 10:15:30;;;;;;;1.20;1.10;;;9.80;99.90;;;;;;5052465;28;20214;-81
2022/12/23 10:18:03;;;;;;;0.60;0.60;;;9.80;99.90;;;;;;5048579;28;20282;-82
2022/12/23 10:20:37;;;;;;;5.03;4.18;;;9.80;99.90;;;;;;5055162;28;20201;-82
2022/12/23 10:23:05;;;;;;;0.47;0.32;;;9.80;99.90;;;;;;5048324;28;20244;-81
2022/12/23 10:25:41;;;;;;;0.40;0.40;;;9.80;99.90;;;;;;5037470;28;20219;-81
2022/12/23 10:28:09;;;;;;;1.33;1.33;;;9.90;99.90;;;;;;5048735;28;20187;-81
2022/12/23 10:30:40;;;;;;;0.47;0.40;;;9.90;99.90;;;;;;5056004;28;20812;-82
2022/12/23 10:33:17;;;;;;;1.77;1.52;;;9.90;99.90;;;;;;5047112;28;20287;-82
2022/12/23 10:35:53;;;;;;;0.88;0.50;;;10.00;99.90;;;;;;5056218;28;20313;-80
2022/12/23 10:38:32;;;;;;;0.40;0.30;;;10.00;99.90;;;;;;5058460;28;20230;-81
2022/12/23 10:41:09;;;;;;;0.50;0.40;;;10.00;99.90;;;;;;5067731;28;20452;-82
2022/12/23 10:43:49;;;;;;;0.47;0.30;;;10.10;99.90;;;;;;5064617;28;20309;-84
2022/12/23 10:46:23;;;;;;;0.57;0.53;;;10.10;99.90;;;;;;5057319;28;20277;-82
2022/12/23 10:49:00;;;;;;;6.23;1.50;;;10.20;99.90;;;;;;5058586;28;20437;-80
2022/12/23 10:51:31;;;;;;;1.88;1.48;;;10.20;99.90;;;;;;5058182;28;20544;-82
2022/12/23 10:54:02;;;;;;;0.50;0.40;;;10.30;99.90;;;;;;5055167;28;20297;-82
2022/12/23 10:56:29;;;;;;;0.50;0.40;;;10.30;99.90;;;;;;5059242;28;20191;-82
2022/12/23 10:58:59;;;;;;;0.52;0.52;;;10.30;99.90;;;;;;5056447;28;20441;-82
2022/12/23 11:01:28;;;;;;;1.50;1.40;;;10.30;99.90;;;;;;5053146;28;20210;-81
2022/12/23 11:04:03;;;;;;;0.50;0.40;;;10.20;99.90;;;;;;5056796;28;20215;-81
2022/12/23 11:06:32;;;;;;;0.60;0.60;;;10.20;99.90;;;;;;5049763;28;20277;-82
2022/12/23 11:09:00;;;;;;;0.50;0.40;;;10.20;99.90;;;;;;5041880;28;20302;-83
2022/12/23 11:11:53;;;;;;;0.50;0.40;;;10.20;99.90;;;;;;5055915;28;20882;-82
2022/12/23 11:14:31;;;;;;;0.50;0.40;;;10.20;99.90;;;;;;5057629;28;20193;-82
2022/12/23 11:16:58;;;;;;;0.50;0.50;;;10.30;99.90;;;;;;5047247;28;20668;-82
2022/12/23 11:19:26;;;;;;;1.45;1.35;;;10.30;99.90;;;;;;5055259;28;20648;-80
2022/12/23 11:21:55;;;;;;;1.25;0.93;;;10.30;99.90;;;;;;5048545;28;20186;-81
2022/12/23 11:24:23;;;;;;;0.50;0.50;;;10.30;99.90;;;;;;5053018;28;20204;-80
2022/12/23 11:27:00;;;;;;;1.97;1.03;;;10.40;99.90;;;;;;5056913;28;20480;-81
2022/12/23 11:29:31;;;;;;;2.95;2.22;;;10.40;99.90;;;;;;5056009;28;20469;-80
2022/12/23 11:31:58;;;;;;;1.95;1.85;;;10.40;99.90;;;;;;5036878;28;20179;-79
2022/12/23 11:34:29;;;;;;;0.50;0.40;;;10.40;99.90;;;;;;5039999;28;20644;-81
2022/12/23 11:36:58;;;;;;;0.50;0.40;;;10.30;99.90;;;;;;5055854;28;20215;-82
2022/12/23 11:39:28;;;;;;;0.50;0.40;;;10.30;99.90;;;;;;5056391;28;20692;-81
2022/12/23 11:42:03;;;;;;;0.80;0.80;;;10.20;99.90;;;;;;5056069;28;20285;-82
2022/12/23 11:44:34;;;;;;;0.50;0.40;;;10.30;99.90;;;;;;5055249;28;20519;-81
2022/12/23 11:47:19;;;;;;;2.03;1.88;;;10.30;99.90;;;;;;5055132;28;20465;-82
2022/12/23 11:49:49;;;;;;;1.75;1.38;;;10.30;99.90;;;;;;5057975;28;20274;-82
2022/12/23 11:52:20;;;;;;;0.50;0.40;;;10.20;99.90;;;;;;5055544;28;20240;-82
2022/12/23 11:54:52;;;;;;;1.13;1.10;;;10.20;99.90;;;;;;5055187;28;20433;-81
2022/12/23 11:57:22;;;;;;;2.35;1.25;;;10.20;99.90;;;;;;5056756;28;20524;-80
2022/12/23 11:59:55;;;;;;;1.53;1.53;;;10.20;99.90;;;;;;5054575;28;20211;-81
2022/12/23 12:02:29;;;;;;;1.03;0.97;;;10.20;99.90;;;;;;5055832;28;21069;-82
2022/12/23 12:05:01;;;;;;;0.50;0.40;;;10.20;99.90;;;;;;5035874;28;20839;-81
2022/12/23 12:07:30;;;;;;;3.33;3.13;;;10.30;99.90;;;;;;5049983;28;20193;-83
2022/12/23 12:09:57;;;;;;;0.50;0.40;;;10.30;99.90;;;;;;5056647;28;20433;-82
2022/12/23 12:12:26;;;;;;;0.50;0.40;;;10.30;99.90;;;;;;5056648;28;20982;-82
2022/12/23 12:14:56;;;;;;;0.93;0.93;;;10.30;99.90;;;;;;5055793;28;20468;-83
2022/12/23 12:17:27;;;;;;;0.50;0.40;;;10.30;99.90;;;;;;5053820;28;20473;-80
2022/12/23 12:20:03;;;;;;;0.50;0.40;;;10.30;99.90;;;;;;5056186;28;20499;-82
2022/12/23 12:22:38;;;;;;;0.50;0.50;;;10.20;99.90;;;;;;5057134;28;20290;-82
2022/12/23 12:25:19;;;;;;;1.05;0.95;;;10.20;99.90;;;;;;5056105;28;20226;-83
2022/12/23 12:27:52;;;;;;;0.50;0.30;;;10.20;99.90;;;;;;5055467;28;20194;-81
2022/12/23 12:30:21;;;;;;;1.35;1.27;;;10.20;99.90;;;;;;5055904;28;20516;-80
2022/12/23 12:32:59;;;;;;;0.50;0.30;;;10.10;99.90;;;;;;5055620;28;20237;-81
2022/12/23 12:35:34;;;;;;;0.50;0.37;;;10.10;99.90;;;;;;5057282;28;20199;-81
2022/12/23 12:38:07;;;;;;;0.50;0.40;;;10.10;99.90;;;;;;5059806;28;20427;-82
2022/12/23 12:40:39;;;;;;;0.70;0.70;;;10.10;99.90;;;;;;5057862;28;20222;-80
2022/12/23 12:43:16;;;;;;;0.50;0.40;;;10.10;99.90;;;;;;5059376;28;20348;-84
2022/12/23 12:45:50;;;;;;;2.33;2.17;;;10.10;99.90;;;;;;5060163;28;20198;-83
2022/12/23 12:48:38;;;;;;;0.70;0.63;;;10.10;99.90;;;;;;5067672;28;20202;-82
2022/12/23 12:51:14;;;;;;;1.40;1.05;;;10.00;99.90;;;;;;5063619;28;20489;-82
2022/12/23 12:53:52;;;;;;;3.25;2.28;;;10.00;99.90;;;;;;5059707;28;20663;-82
2022/12/23 12:56:24;;;;;;;0.50;0.40;;;10.00;99.90;;;;;;5061180;28;20175;-83
2022/12/23 12:58:51;;;;;;;0.50;0.40;;;9.90;99.90;;;;;;5059098;28;20191;-81
2022/12/23 13:01:30;;;;;;;4.30;1.80;;;9.90;99.90;;;;;;5064782;28;20461;-82
2022/12/23 13:04:28;;;;;;;0.50;0.40;;;9.90;99.90;;;;;;5056031;28;20493;-81
2022/12/23 13:07:04;;;;;;;0.50;0.40;;;9.80;99.90;;;;;;5058422;28;20305;-81
2022/12/23 13:09:40;;;;;;;2.17;1.08;;;9.90;99.90;;;;;;5055943;28;20218;-81
2022/12/23 13:12:16;;;;;;;2.95;1.38;;;9.80;99.90;;;;;;5056753;28;20206;-81
2022/12/23 13:14:53;;;;;;;0.50;0.40;;;9.80;99.90;;;;;;5065674;28;20196;-82
2022/12/23 13:17:24;;;;;;;1.58;0.50;;;9.70;99.90;;;;;;5052331;28;20201;-81
2022/12/23 13:19:56;;;;;;;0.83;0.77;;;9.60;99.90;;;;;;5056291;28;20210;-82
2022/12/23 13:22:28;;;;;;;0.50;0.40;;;9.60;99.90;;;;;;5055008;28;20473;-84
2022/12/23 13:25:01;;;;;;;0.50;0.40;;;9.60;99.90;;;;;;5057395;28;20260;-82
2022/12/23 13:27:32;;;;;;;0.50;0.40;;;9.70;99.90;;;;;;5054880;28;20564;-82
2022/12/23 13:30:10;;;;;;;0.50;0.40;;;9.70;99.90;;;;;;5057832;28;20186;-82
2022/12/23 13:32:58;;;;;;;1.23;1.13;;;9.70;99.90;;;;;;5056251;28;20210;-81
2022/12/23 13:35:35;;;;;;;0.50;0.40;;;9.70;99.90;;;;;;5057392;28;20183;-81
2022/12/23 13:38:18;;;;;;;1.23;1.00;;;9.70;99.90;;;;;;5038771;28;20179;-81
2022/12/23 13:40:56;;;;;;;1.95;0.70;;;9.70;99.90;;;;;;5047009;28;20199;-82
2022/12/23 13:43:28;;;;;;;0.50;0.43;;;9.60;99.90;;;;;;5057577;28;20238;-81